createdAt,value
2018-07-30T00:06:07.573Z,93378.86
2018-07-30T00:21:11.522Z,93381.61
2018-07-30T00:36:15.332Z,93382.23
2018-07-30T00:51:19.155Z,93386.63
2018-07-30T01:06:22.964Z,93394.02
2018-07-30T01:21:26.761Z,93379.13
2018-07-30T01:36:30.566Z,93381.14
2018-07-30T01:51:34.386Z,93380.30
2018-07-30T02:06:38.247Z,93386.03
2018-07-30T02:21:42.068Z,93389.99
2018-07-30T02:36:45.955Z,93401.78
2018-07-30T02:51:49.840Z,93402.73
2018-07-30T03:06:53.689Z,93408.91
2018-07-30T03:21:57.635Z,93406.84
2018-07-30T03:37:01.874Z,93417.22
2018-07-30T03:52:05.677Z,93413.02
2018-07-30T04:07:09.460Z,93425.45
2018-07-30T04:22:13.416Z,93438.70
2018-07-30T04:37:17.446Z,93444.14
2018-07-30T04:52:21.255Z,93446.63
2018-07-30T05:07:25.199Z,93444.39
2018-07-30T05:22:28.995Z,93442.69
2018-07-30T05:37:32.983Z,93438.27
2018-07-30T05:52:36.865Z,93425.91
2018-07-30T06:07:40.682Z,93424.50
2018-07-30T06:22:44.534Z,93437.06
2018-07-30T06:37:48.808Z,93432.42
2018-07-30T06:52:52.794Z,93431.87
2018-07-30T07:07:56.615Z,93437.81
2018-07-30T07:23:00.626Z,93439.36
2018-07-30T07:38:04.468Z,93441.66
2018-07-30T07:53:08.306Z,93442.56
2018-07-30T08:08:12.252Z,93438.55
2018-07-30T08:23:16.094Z,93435.59
2018-07-30T08:38:19.921Z,93428.88
2018-07-30T08:53:23.758Z,93410.44
2018-07-30T09:08:28.269Z,93411.29
2018-07-30T09:23:32.571Z,93399.98
2018-07-30T09:38:37.004Z,93381.67
2018-07-30T09:53:41.281Z,93364.04
2018-07-30T10:08:46.718Z,93369.42
2018-07-30T10:23:50.909Z,93348.99
2018-07-30T10:38:55.168Z,93354.78
2018-07-30T10:53:59.250Z,93391.03
2018-07-30T11:09:03.794Z,93398.33
2018-07-30T11:24:07.884Z,93394.63
2018-07-30T11:39:13.080Z,93399.47
2018-07-30T11:54:16.944Z,93396.39
2018-07-30T12:09:20.823Z,93419.45
2018-07-30T12:24:24.643Z,93410.00
2018-07-30T12:39:28.501Z,93387.55
2018-07-30T12:54:32.434Z,93394.47
2018-07-30T13:09:36.251Z,93398.82
2018-07-30T13:24:40.112Z,93378.73
2018-07-30T13:39:44.446Z,93371.81
2018-07-30T13:54:48.830Z,93367.07
2018-07-30T14:09:52.687Z,93372.59
2018-07-30T14:24:56.511Z,93365.94
2018-07-30T14:40:01.430Z,93357.51
2018-07-30T14:55:05.501Z,93377.78
2018-07-30T15:10:09.446Z,93387.48
2018-07-30T15:25:13.352Z,93396.28
2018-07-30T15:40:17.160Z,93400.87
2018-07-30T15:55:20.969Z,93415.77
2018-07-30T16:10:24.884Z,93427.95
2018-07-30T16:25:28.901Z,93441.61
2018-07-30T16:40:32.986Z,93442.33
2018-07-30T16:55:36.955Z,93443.69
2018-07-30T17:10:40.898Z,93430.59
2018-07-30T17:25:44.805Z,93464.83
2018-07-30T17:40:48.726Z,93483.73
2018-07-30T17:55:52.645Z,93492.25
2018-07-30T18:10:56.496Z,93490.61
2018-07-30T18:26:00.465Z,93495.80
2018-07-30T18:41:04.398Z,93501.88
2018-07-30T18:56:08.305Z,93525.48
2018-07-30T19:11:12.233Z,93539.83
2018-07-30T19:26:16.160Z,93541.28
2018-07-30T19:41:20.023Z,93550.85
2018-07-30T19:56:23.919Z,93561.13
2018-07-30T20:11:27.864Z,93571.42
2018-07-30T20:26:31.704Z,93578.03
2018-07-30T20:41:35.944Z,93582.00
2018-07-30T20:56:40.058Z,93572.90
2018-07-30T21:11:44.000Z,93584.67
2018-07-30T21:26:47.829Z,93581.19
2018-07-30T21:41:51.673Z,93579.05
2018-07-30T21:56:55.577Z,93578.65
2018-07-30T22:11:59.473Z,93575.55
2018-07-30T22:27:03.756Z,93556.23
2018-07-30T22:42:07.737Z,93568.66
2018-07-30T22:57:11.691Z,93565.09
2018-07-30T23:12:15.508Z,93557.13
2018-07-30T23:27:19.944Z,93544.89
2018-07-30T23:42:23.732Z,93538.05
2018-07-30T23:57:28.150Z,93541.65
